createdAt,value
2022-09-15T00:00:31.687Z,37.00
2022-09-15T00:01:31.778Z,42.00
2022-09-15T00:02:31.868Z,39.80
2022-09-15T00:03:31.656Z,36.70
2022-09-15T00:04:31.624Z,40.50
2022-09-15T00:05:31.651Z,43.20
2022-09-15T00:06:31.708Z,37.50
2022-09-15T00:07:31.664Z,41.20
2022-09-15T00:08:31.605Z,36.10
2022-09-15T00:09:31.672Z,36.90
2022-09-15T00:10:31.570Z,40.50
2022-09-15T00:11:31.666Z,33.10
2022-09-15T00:12:31.551Z,33.40
2022-09-15T00:13:31.530Z,33.60
2022-09-15T00:14:31.585Z,40.60
2022-09-15T00:15:31.573Z,38.00
2022-09-15T00:16:31.651Z,39.10
2022-09-15T00:17:31.545Z,35.30
2022-09-15T00:18:31.510Z,34.90
2022-09-15T00:19:31.483Z,34.60
2022-09-15T00:20:31.495Z,39.30
2022-09-15T00:21:31.516Z,42.30
2022-09-15T00:22:31.510Z,45.30
2022-09-15T00:23:31.431Z,48.60
2022-09-15T00:24:31.467Z,48.10
2022-09-15T00:25:31.457Z,49.50
2022-09-15T00:26:31.406Z,55.90
2022-09-15T00:27:31.373Z,53.30
2022-09-15T00:28:31.467Z,51.90
2022-09-15T00:29:31.372Z,51.80
2022-09-15T00:30:31.400Z,52.80
2022-09-15T00:31:31.404Z,53.00
2022-09-15T00:32:31.324Z,48.50
2022-09-15T00:33:31.377Z,58.80
2022-09-15T00:34:31.297Z,43.90
2022-09-15T00:35:31.313Z,45.90
2022-09-15T00:36:31.348Z,45.80
2022-09-15T00:37:31.266Z,44.30
2022-09-15T00:38:31.249Z,43.70
2022-09-15T00:39:31.265Z,43.40
2022-09-15T00:40:31.346Z,38.00
2022-09-15T00:41:31.288Z,38.50
2022-09-15T00:42:31.238Z,38.30
2022-09-15T00:43:31.262Z,36.10
2022-09-15T00:44:31.194Z,44.00
2022-09-15T00:45:31.269Z,40.20
2022-09-15T00:46:31.188Z,45.20
2022-09-15T00:47:31.206Z,43.00
2022-09-15T00:48:31.163Z,41.80
2022-09-15T00:49:31.154Z,46.10
2022-09-15T00:50:31.178Z,41.20
2022-09-15T00:51:31.135Z,38.10
2022-09-15T00:52:31.135Z,38.50
2022-09-15T00:53:31.113Z,40.50
2022-09-15T00:54:31.133Z,39.10
2022-09-15T00:55:31.106Z,37.30
2022-09-15T00:56:31.127Z,43.50
2022-09-15T00:57:31.130Z,38.50
2022-09-15T00:58:31.053Z,41.70
2022-09-15T00:59:31.043Z,35.20
2022-09-15T01:00:31.040Z,39.10
2022-09-15T01:01:31.117Z,37.90
2022-09-15T01:02:31.066Z,40.80
2022-09-15T01:03:31.043Z,42.20
2022-09-15T01:04:31.004Z,42.60
2022-09-15T01:05:30.979Z,43.20
2022-09-15T01:06:31.053Z,41.20
2022-09-15T01:07:30.992Z,47.00
2022-09-15T01:08:30.952Z,44.80
2022-09-15T01:09:31.006Z,45.70
2022-09-15T01:10:30.951Z,44.90
2022-09-15T01:11:30.930Z,42.60
2022-09-15T01:12:30.955Z,43.90
2022-09-15T01:13:30.914Z,41.30
2022-09-15T01:14:30.915Z,41.20
2022-09-15T01:15:30.940Z,42.30
2022-09-15T01:16:30.896Z,44.90
2022-09-15T01:17:30.859Z,41.20
2022-09-15T01:18:30.850Z,40.60
2022-09-15T01:19:30.873Z,38.30
2022-09-15T01:20:30.865Z,40.20
2022-09-15T01:21:30.859Z,41.70
2022-09-15T01:22:30.839Z,46.70
2022-09-15T01:23:30.816Z,43.60
2022-09-15T01:24:30.800Z,50.10
2022-09-15T01:25:30.799Z,42.70
2022-09-15T01:26:30.754Z,51.70
2022-09-15T01:27:42.105Z,49.40
2022-09-15T01:28:30.748Z,43.70
2022-09-15T01:29:30.752Z,40.90
2022-09-15T01:30:30.756Z,42.00
2022-09-15T01:31:30.812Z,41.20
2022-09-15T01:32:30.736Z,40.10
2022-09-15T01:33:30.768Z,41.70
2022-09-15T01:34:30.691Z,46.50
2022-09-15T01:35:30.685Z,88.40
2022-09-15T01:36:30.698Z,40.20
2022-09-15T01:37:30.675Z,57.00
2022-09-15T01:38:30.651Z,56.00
2022-09-15T01:39:30.666Z,45.50
2022-09-15T01:40:30.698Z,35.80
2022-09-15T01:41:30.676Z,53.90
2022-09-15T01:42:30.616Z,80.70
2022-09-15T01:43:30.617Z,54.90
2022-09-15T01:44:30.689Z,47.40
2022-09-15T01:45:30.624Z,34.50
2022-09-15T01:46:30.603Z,27.90
2022-09-15T01:47:30.649Z,33.20
2022-09-15T01:48:30.547Z,27.60
2022-09-15T01:49:30.542Z,28.90
2022-09-15T01:50:30.555Z,26.20
2022-09-15T01:51:30.545Z,29.20
2022-09-15T01:52:30.509Z,30.80
2022-09-15T01:53:30.535Z,27.50
2022-09-15T01:54:30.519Z,23.10
2022-09-15T01:55:30.498Z,26.30
2022-09-15T01:56:30.507Z,24.80
2022-09-15T01:57:30.492Z,27.10
2022-09-15T01:58:30.439Z,21.60
2022-09-15T01:59:30.465Z,30.00
2022-09-15T02:00:30.426Z,63.10
2022-09-15T02:01:30.476Z,45.60
2022-09-15T02:02:30.430Z,29.80
2022-09-15T02:03:30.433Z,28.90
2022-09-15T02:04:30.453Z,55.90
2022-09-15T02:05:30.379Z,45.40
2022-09-15T02:06:30.359Z,44.30
2022-09-15T02:07:30.369Z,43.50
2022-09-15T02:08:30.318Z,36.20
2022-09-15T02:09:30.340Z,43.50
2022-09-15T02:10:30.331Z,47.60
2022-09-15T02:11:30.376Z,44.30
2022-09-15T02:12:30.346Z,43.10
2022-09-15T02:13:30.316Z,35.60
2022-09-15T02:14:30.260Z,73.10
2022-09-15T02:15:30.294Z,43.90
2022-09-15T02:16:30.281Z,42.40
2022-09-15T02:17:30.304Z,43.60
2022-09-15T02:18:30.211Z,35.00
2022-09-15T02:19:30.272Z,30.10
2022-09-15T02:20:30.225Z,28.90
2022-09-15T02:21:30.190Z,33.90
2022-09-15T02:22:30.184Z,30.30
2022-09-15T02:23:30.241Z,26.10
2022-09-15T02:24:30.238Z,30.30
2022-09-15T02:25:30.212Z,34.90
2022-09-15T02:26:30.164Z,27.90
2022-09-15T02:27:30.189Z,33.80
2022-09-15T02:28:30.125Z,28.80
2022-09-15T02:29:30.120Z,36.00
2022-09-15T02:30:30.100Z,28.90
2022-09-15T02:31:30.184Z,27.30
2022-09-15T02:32:30.083Z,33.00
2022-09-15T02:33:30.110Z,45.90
2022-09-15T02:34:30.052Z,28.70
2022-09-15T02:35:30.051Z,82.40
2022-09-15T02:36:30.058Z,28.00
2022-09-15T02:37:30.044Z,30.50
2022-09-15T02:38:30.029Z,27.90
2022-09-15T02:39:30.038Z,25.00
2022-09-15T02:40:30.102Z,29.50
2022-09-15T02:41:29.989Z,25.20
2022-09-15T02:42:29.982Z,34.30
2022-09-15T02:43:30.058Z,27.70
2022-09-15T02:44:30.012Z,51.60
2022-09-15T02:45:30.019Z,33.90
2022-09-15T02:46:30.030Z,37.80
2022-09-15T02:47:29.975Z,26.80
2022-09-15T02:48:29.951Z,30.20
2022-09-15T02:49:29.993Z,36.20
2022-09-15T02:50:29.945Z,38.80
2022-09-15T02:51:29.902Z,47.20
2022-09-15T02:52:29.921Z,37.50
2022-09-15T02:53:29.975Z,44.40
2022-09-15T02:54:29.867Z,40.80
2022-09-15T02:55:29.866Z,55.40
2022-09-15T02:56:29.862Z,53.70
2022-09-15T02:57:29.883Z,55.20
2022-09-15T02:58:29.815Z,57.70
2022-09-15T02:59:29.830Z,55.50
2022-09-15T03:00:29.790Z,55.30
2022-09-15T03:01:30.166Z,60.50
2022-09-15T03:02:29.903Z,60.90
2022-09-15T03:03:29.802Z,56.30
2022-09-15T03:04:29.863Z,63.90
2022-09-15T03:05:29.753Z,59.30
2022-09-15T03:06:29.832Z,63.20
2022-09-15T03:07:29.826Z,54.60
2022-09-15T03:08:29.738Z,60.70
2022-09-15T03:09:29.728Z,58.60
2022-09-15T03:10:29.773Z,53.40
2022-09-15T03:11:29.766Z,60.80
2022-09-15T03:12:29.758Z,52.60
2022-09-15T03:13:29.771Z,57.10
2022-09-15T03:14:29.724Z,58.90
2022-09-15T03:15:29.662Z,54.50
2022-09-15T03:16:29.677Z,51.70
2022-09-15T03:17:30.276Z,64.40
2022-09-15T03:18:29.660Z,55.80
2022-09-15T03:19:29.643Z,51.80
2022-09-15T03:20:29.639Z,54.20
2022-09-15T03:21:29.629Z,49.70
2022-09-15T03:22:29.602Z,58.80
2022-09-15T03:23:29.571Z,57.50
2022-09-15T03:24:29.576Z,57.10
2022-09-15T03:25:29.560Z,58.00
2022-09-15T03:26:29.561Z,59.80
2022-09-15T03:27:29.586Z,57.40
2022-09-15T03:28:29.657Z,52.40
2022-09-15T03:29:29.539Z,57.10
2022-09-15T03:30:29.648Z,54.80
2022-09-15T03:31:29.594Z,54.40
2022-09-15T03:32:29.481Z,58.30
2022-09-15T03:33:29.468Z,59.40
2022-09-15T03:34:29.496Z,52.30
2022-09-15T03:35:29.522Z,54.60
2022-09-15T03:36:29.494Z,54.20
2022-09-15T03:37:29.448Z,58.30
2022-09-15T03:38:29.492Z,58.60
2022-09-15T03:39:29.542Z,53.80
2022-09-15T03:40:29.485Z,53.80
2022-09-15T03:41:29.388Z,55.70
2022-09-15T03:42:29.435Z,61.90
2022-09-15T03:43:29.418Z,59.70
2022-09-15T03:44:29.377Z,62.20
2022-09-15T03:45:29.820Z,58.10
2022-09-15T03:46:29.580Z,62.40
2022-09-15T03:47:29.354Z,58.60
2022-09-15T03:48:29.450Z,61.90
2022-09-15T03:49:29.452Z,54.80
2022-09-15T03:50:29.436Z,59.20
2022-09-15T03:51:29.322Z,59.80
2022-09-15T03:52:29.396Z,66.20
2022-09-15T03:53:29.379Z,61.30
2022-09-15T03:54:29.351Z,57.60
2022-09-15T03:55:29.397Z,59.10
2022-09-15T03:56:29.322Z,58.80
2022-09-15T03:57:29.242Z,54.70
2022-09-15T03:58:30.866Z,54.60
2022-09-15T03:59:29.229Z,56.10
2022-09-15T04:00:29.307Z,60.30
2022-09-15T04:01:29.318Z,56.00
2022-09-15T04:02:29.555Z,58.10
2022-09-15T04:03:29.306Z,59.90
2022-09-15T04:04:29.166Z,52.70
2022-09-15T04:05:29.303Z,57.80
2022-09-15T04:06:29.219Z,54.30
2022-09-15T04:07:29.274Z,58.90
2022-09-15T04:08:29.202Z,52.80
2022-09-15T04:09:29.179Z,50.50
2022-09-15T04:10:29.112Z,52.00
2022-09-15T04:11:29.154Z,50.50
2022-09-15T04:12:29.106Z,51.20
2022-09-15T04:13:29.049Z,48.00
2022-09-15T04:14:29.031Z,49.50
2022-09-15T04:15:29.070Z,51.60
2022-09-15T04:16:29.150Z,46.90
2022-09-15T04:17:29.068Z,48.10
2022-09-15T04:18:29.039Z,43.10
2022-09-15T04:19:28.998Z,40.40
2022-09-15T04:20:29.019Z,41.20
2022-09-15T04:21:28.979Z,40.50
2022-09-15T04:22:29.047Z,40.30
2022-09-15T04:23:28.958Z,42.10
2022-09-15T04:24:29.019Z,38.00
2022-09-15T04:25:28.926Z,39.60
2022-09-15T04:26:28.944Z,39.00
2022-09-15T04:27:28.888Z,40.40
2022-09-15T04:28:29.016Z,36.40
2022-09-15T04:29:28.911Z,37.30
2022-09-15T04:30:28.884Z,41.50
2022-09-15T04:31:28.912Z,41.10
2022-09-15T04:32:28.920Z,40.20
2022-09-15T04:33:28.888Z,41.50
2022-09-15T04:34:28.919Z,45.20
2022-09-15T04:35:28.826Z,41.40
2022-09-15T04:36:28.856Z,43.00
2022-09-15T04:37:28.781Z,37.80
2022-09-15T04:38:28.755Z,43.20
2022-09-15T04:39:28.981Z,40.40
2022-09-15T04:40:28.833Z,43.30
2022-09-15T04:41:28.924Z,42.20
2022-09-15T04:42:28.701Z,40.90
2022-09-15T04:43:28.714Z,42.90
2022-09-15T04:44:28.682Z,40.70
2022-09-15T04:45:28.693Z,45.60
2022-09-15T04:46:28.750Z,48.10
2022-09-15T04:47:28.749Z,43.00
2022-09-15T04:48:28.670Z,43.90
2022-09-15T04:49:28.626Z,44.20
2022-09-15T04:50:28.605Z,45.90
2022-09-15T04:51:28.631Z,48.30
2022-09-15T04:52:28.606Z,43.00
2022-09-15T04:53:28.545Z,46.00
2022-09-15T04:54:28.613Z,44.90
2022-09-15T04:55:28.583Z,47.60
2022-09-15T04:56:28.563Z,43.60
2022-09-15T04:57:28.584Z,44.80
2022-09-15T04:58:28.527Z,49.10
2022-09-15T04:59:28.517Z,52.40
2022-09-15T05:00:28.601Z,47.50
2022-09-15T05:01:28.567Z,48.80
2022-09-15T05:02:28.604Z,45.20
2022-09-15T05:03:28.469Z,46.60
2022-09-15T05:04:28.522Z,47.30
2022-09-15T05:05:28.456Z,54.80
2022-09-15T05:06:28.523Z,52.40
2022-09-15T05:07:28.430Z,57.70
2022-09-15T05:08:28.435Z,53.10
2022-09-15T05:09:28.432Z,50.40
2022-09-15T05:10:28.467Z,45.20
2022-09-15T05:11:28.576Z,48.10
2022-09-15T05:12:28.423Z,47.80
2022-09-15T05:13:28.393Z,46.30
2022-09-15T05:14:28.360Z,43.30
2022-09-15T05:15:28.376Z,46.40
2022-09-15T05:16:28.487Z,46.60
2022-09-15T05:17:28.388Z,50.40
2022-09-15T05:18:28.316Z,45.80
2022-09-15T05:19:28.311Z,50.00
2022-09-15T05:20:28.315Z,45.70
2022-09-15T05:21:28.349Z,44.30
2022-09-15T05:22:28.292Z,49.80
2022-09-15T05:23:28.259Z,42.50
2022-09-15T05:24:28.271Z,45.10
2022-09-15T05:25:28.236Z,46.10
2022-09-15T05:26:28.235Z,43.60
2022-09-15T05:27:28.248Z,47.20
2022-09-15T05:28:28.231Z,43.50
2022-09-15T05:29:28.289Z,41.10
2022-09-15T05:30:44.580Z,41.60
2022-09-15T05:31:28.193Z,46.30
2022-09-15T05:32:28.231Z,43.30
2022-09-15T05:33:28.152Z,45.20
2022-09-15T05:34:28.160Z,42.70
2022-09-15T05:35:28.174Z,45.00
2022-09-15T05:36:28.120Z,44.20
2022-09-15T05:37:28.124Z,36.90
2022-09-15T05:38:28.142Z,39.50
2022-09-15T05:39:28.117Z,41.10
2022-09-15T05:40:28.237Z,36.20
2022-09-15T05:41:28.067Z,35.70
2022-09-15T05:42:28.075Z,40.10
2022-09-15T05:43:28.104Z,37.90
2022-09-15T05:44:28.064Z,40.50
2022-09-15T05:45:28.082Z,36.20
2022-09-15T05:46:28.121Z,37.90
2022-09-15T05:47:28.029Z,37.30
2022-09-15T05:48:28.012Z,38.40
2022-09-15T05:49:27.991Z,37.90
2022-09-15T05:50:28.052Z,36.90
2022-09-15T05:51:27.965Z,32.80
2022-09-15T05:52:27.959Z,36.90
2022-09-15T05:53:28.058Z,38.40
2022-09-15T05:54:27.956Z,33.00
2022-09-15T05:55:27.933Z,32.40
2022-09-15T05:56:27.927Z,38.60
2022-09-15T05:57:27.931Z,38.80
2022-09-15T05:58:27.944Z,35.70
2022-09-15T05:59:27.876Z,37.10
2022-09-15T06:00:27.936Z,32.80
2022-09-15T06:02:45.837Z,31.00
2022-09-15T06:03:46.317Z,27.80
2022-09-15T06:04:46.214Z,35.20
2022-09-15T06:05:46.158Z,27.20
2022-09-15T06:06:46.170Z,29.70
2022-09-15T06:07:46.180Z,33.50
2022-09-15T06:08:48.145Z,32.90
2022-09-15T06:09:46.118Z,32.40
2022-09-15T06:10:46.078Z,31.10
2022-09-15T06:11:46.132Z,29.80
2022-09-15T06:12:46.068Z,28.00
2022-09-15T06:13:46.107Z,31.00
2022-09-15T06:14:46.061Z,28.90
2022-09-15T06:15:46.103Z,30.10
2022-09-15T06:16:46.052Z,29.50
2022-09-15T06:17:46.054Z,27.30
2022-09-15T06:18:46.055Z,25.90
2022-09-15T06:19:46.020Z,29.30
2022-09-15T06:20:46.004Z,25.70
2022-09-15T06:21:45.982Z,24.60
2022-09-15T06:22:46.012Z,27.00
2022-09-15T06:23:50.072Z,27.90
2022-09-15T06:24:46.016Z,26.10
2022-09-15T06:25:45.930Z,23.50
2022-09-15T06:26:45.957Z,29.20
2022-09-15T06:27:45.923Z,26.40
2022-09-15T06:28:45.935Z,25.00
2022-09-15T06:29:45.972Z,24.90
2022-09-15T06:30:45.925Z,23.30
2022-09-15T06:31:45.988Z,23.10
2022-09-15T06:32:48.235Z,24.80
2022-09-15T06:33:45.872Z,23.90
2022-09-15T06:34:45.848Z,22.30
2022-09-15T06:35:45.860Z,25.50
2022-09-15T06:36:45.822Z,23.90
2022-09-15T06:37:45.845Z,22.20
2022-09-15T06:38:45.786Z,25.20
2022-09-15T06:39:45.829Z,25.40
2022-09-15T06:40:45.842Z,24.50
2022-09-15T06:42:01.827Z,24.10
2022-09-15T06:42:45.753Z,24.60
2022-09-15T06:43:45.771Z,22.00
2022-09-15T06:44:45.755Z,22.80
2022-09-15T06:45:45.851Z,22.40
2022-09-15T06:46:45.705Z,25.60
2022-09-15T06:47:45.692Z,21.00
2022-09-15T06:48:48.277Z,19.70
2022-09-15T06:49:45.684Z,23.70
2022-09-15T06:50:45.706Z,26.60
2022-09-15T06:51:45.684Z,25.50
2022-09-15T06:52:45.660Z,27.00
2022-09-15T06:53:45.683Z,28.90
2022-09-15T06:54:45.619Z,28.90
2022-09-15T06:55:45.640Z,29.10
2022-09-15T06:56:45.587Z,31.10
2022-09-15T06:57:45.661Z,30.00
2022-09-15T06:58:45.672Z,26.90
2022-09-15T06:59:45.596Z,32.00
2022-09-15T07:00:45.672Z,29.50
2022-09-15T07:01:45.730Z,30.40
2022-09-15T07:02:45.725Z,29.10
2022-09-15T07:03:45.645Z,30.30
2022-09-15T07:04:45.539Z,32.30
2022-09-15T07:05:45.501Z,31.70
2022-09-15T07:06:45.560Z,28.10
2022-09-15T07:07:45.473Z,32.80
2022-09-15T07:08:45.563Z,30.30
2022-09-15T07:09:48.938Z,34.50
2022-09-15T07:10:45.545Z,34.40
2022-09-15T07:11:45.455Z,32.80
2022-09-15T07:12:45.432Z,30.50
2022-09-15T07:13:45.428Z,27.60
2022-09-15T07:14:45.440Z,31.80
2022-09-15T07:15:45.430Z,30.30
2022-09-15T07:16:45.482Z,32.10
2022-09-15T07:17:45.420Z,30.60
2022-09-15T07:18:45.358Z,27.10
2022-09-15T07:19:45.351Z,34.30
2022-09-15T07:20:45.381Z,30.60
2022-09-15T07:21:45.337Z,28.60
2022-09-15T07:22:45.347Z,31.70
2022-09-15T07:23:45.479Z,27.30
2022-09-15T07:24:45.325Z,29.00
2022-09-15T07:25:45.291Z,27.00
2022-09-15T07:26:45.298Z,29.80
2022-09-15T07:27:45.276Z,26.90
2022-09-15T07:28:45.267Z,29.60
2022-09-15T07:29:45.294Z,30.80
2022-09-15T07:30:45.269Z,28.90
2022-09-15T07:31:45.268Z,29.70
2022-09-15T07:32:45.257Z,27.30
2022-09-15T07:33:45.355Z,31.30
2022-09-15T07:34:45.202Z,28.70
2022-09-15T07:35:45.187Z,26.30
2022-09-15T07:36:45.198Z,25.10
2022-09-15T07:37:45.194Z,27.70
2022-09-15T07:38:45.175Z,28.90
2022-09-15T07:39:45.206Z,23.50
2022-09-15T07:40:45.144Z,27.20
2022-09-15T07:41:45.167Z,27.40
2022-09-15T07:42:45.113Z,27.90
2022-09-15T07:43:45.106Z,29.10
2022-09-15T07:44:45.090Z,27.70
2022-09-15T07:45:45.182Z,25.60
2022-09-15T07:46:45.105Z,25.20
2022-09-15T07:47:45.053Z,30.20
2022-09-15T07:48:45.120Z,26.80
2022-09-15T07:49:45.032Z,28.10
2022-09-15T07:50:45.024Z,30.60
2022-09-15T07:51:45.005Z,30.30
2022-09-15T07:52:45.038Z,28.90
2022-09-15T07:53:44.984Z,28.60
2022-09-15T07:54:44.980Z,25.40
2022-09-15T07:55:44.990Z,26.00
2022-09-15T07:56:44.966Z,29.00
2022-09-15T07:57:44.937Z,27.70
2022-09-15T07:58:44.953Z,28.20
2022-09-15T07:59:44.946Z,30.90
2022-09-15T08:00:44.995Z,27.40
2022-09-15T08:01:44.928Z,24.30
2022-09-15T08:02:44.902Z,26.90
2022-09-15T08:03:44.964Z,25.80
2022-09-15T08:04:44.878Z,24.70
2022-09-15T08:05:45.978Z,23.10
2022-09-15T08:06:44.843Z,27.00
2022-09-15T08:07:44.853Z,28.00
2022-09-15T08:08:44.837Z,25.40
2022-09-15T08:09:44.818Z,27.90
2022-09-15T08:10:44.843Z,30.30
2022-09-15T08:11:44.809Z,25.10
2022-09-15T08:12:44.794Z,25.60
2022-09-15T08:13:44.777Z,26.10
2022-09-15T08:14:44.812Z,25.10
2022-09-15T08:15:44.821Z,26.00
2022-09-15T08:16:44.742Z,25.60
2022-09-15T08:17:44.736Z,26.30
2022-09-15T08:18:45.035Z,26.70
2022-09-15T08:19:44.701Z,24.40
2022-09-15T08:20:44.716Z,25.10
2022-09-15T08:21:44.715Z,27.40
2022-09-15T08:22:44.720Z,27.80
2022-09-15T08:23:44.651Z,26.40
2022-09-15T08:24:44.663Z,30.00
2022-09-15T08:25:44.655Z,25.10
2022-09-15T08:26:44.633Z,24.00
2022-09-15T08:27:44.606Z,24.70
2022-09-15T08:28:44.714Z,24.60
2022-09-15T08:29:44.620Z,25.60
2022-09-15T08:30:44.624Z,25.10
2022-09-15T08:31:44.633Z,23.00
2022-09-15T08:32:44.580Z,23.30
2022-09-15T08:33:45.897Z,22.60
2022-09-15T08:34:44.562Z,23.10
2022-09-15T08:35:44.564Z,23.10
2022-09-15T08:36:44.575Z,22.20
2022-09-15T08:37:44.525Z,20.90
2022-09-15T08:38:44.525Z,22.00
2022-09-15T08:39:44.583Z,21.00
2022-09-15T08:40:44.498Z,20.40
2022-09-15T08:41:44.490Z,22.50
2022-09-15T08:42:45.102Z,22.70
2022-09-15T08:43:44.503Z,25.40
2022-09-15T08:44:44.459Z,23.90
2022-09-15T08:45:44.426Z,20.10
2022-09-15T08:46:44.519Z,24.10
2022-09-15T08:47:44.402Z,18.80
2022-09-15T08:48:44.404Z,19.20
2022-09-15T08:49:52.603Z,23.70
2022-09-15T08:50:44.386Z,17.90
2022-09-15T08:51:44.391Z,20.00
2022-09-15T08:52:44.386Z,22.30
2022-09-15T08:53:44.356Z,17.90
2022-09-15T08:54:44.334Z,21.20
2022-09-15T08:55:44.312Z,21.00
2022-09-15T08:56:44.339Z,19.70
2022-09-15T08:57:44.314Z,22.60
2022-09-15T08:58:44.314Z,19.10
2022-09-15T08:59:44.288Z,21.40
2022-09-15T09:00:44.276Z,19.70
2022-09-15T09:01:44.424Z,17.30
2022-09-15T09:02:44.356Z,21.00
2022-09-15T09:03:44.235Z,14.80
2022-09-15T09:04:44.236Z,15.80
2022-09-15T09:05:44.276Z,17.20
2022-09-15T09:06:44.228Z,13.30
2022-09-15T09:07:44.224Z,22.10
2022-09-15T09:08:44.326Z,13.40
2022-09-15T09:09:44.194Z,15.20
2022-09-15T09:10:44.199Z,18.30
2022-09-15T09:11:44.172Z,12.80
2022-09-15T09:12:44.151Z,14.20
2022-09-15T09:13:44.133Z,15.80
2022-09-15T09:14:44.132Z,18.60
2022-09-15T09:15:44.160Z,13.70
2022-09-15T09:16:44.117Z,16.20
2022-09-15T09:17:44.097Z,14.00
2022-09-15T09:18:44.110Z,17.20
2022-09-15T09:19:44.076Z,11.90
2022-09-15T09:20:44.090Z,13.50
2022-09-15T09:21:44.037Z,12.70
2022-09-15T09:22:44.046Z,14.40
2022-09-15T09:23:44.037Z,16.90
2022-09-15T09:24:44.023Z,11.70
2022-09-15T09:25:44.019Z,17.20
2022-09-15T09:26:44.004Z,11.50
2022-09-15T09:27:44.008Z,14.60
2022-09-15T09:28:43.989Z,14.10
2022-09-15T09:29:43.964Z,14.00
2022-09-15T09:30:43.987Z,11.40
2022-09-15T09:31:43.956Z,13.60
2022-09-15T09:32:43.946Z,13.50
2022-09-15T09:33:47.611Z,12.10
2022-09-15T09:34:43.922Z,13.60
2022-09-15T09:35:43.915Z,14.40
2022-09-15T09:36:43.898Z,9.90
2022-09-15T09:37:43.877Z,13.30
2022-09-15T09:38:43.906Z,12.50
2022-09-15T09:39:43.862Z,10.30
2022-09-15T09:40:43.857Z,12.90
2022-09-15T09:41:43.843Z,10.90
2022-09-15T09:42:43.842Z,12.10
2022-09-15T09:43:43.834Z,14.00
2022-09-15T09:44:43.828Z,11.60
2022-09-15T09:45:43.849Z,12.40
2022-09-15T09:46:43.822Z,12.40
2022-09-15T09:47:43.792Z,12.60
2022-09-15T09:48:43.813Z,15.00
2022-09-15T09:49:43.777Z,13.10
2022-09-15T09:50:43.751Z,8.90
2022-09-15T09:51:43.738Z,12.70
2022-09-15T09:52:43.734Z,11.80
2022-09-15T09:53:43.773Z,11.80
2022-09-15T09:54:43.727Z,10.60
2022-09-15T09:55:43.706Z,12.50
2022-09-15T09:56:43.690Z,10.20
2022-09-15T09:57:43.683Z,10.00
2022-09-15T09:58:43.681Z,10.60
2022-09-15T09:59:43.695Z,10.30
2022-09-15T10:00:43.634Z,10.60
2022-09-15T10:01:43.684Z,12.30
2022-09-15T10:02:43.634Z,10.80
2022-09-15T10:03:43.603Z,9.50
2022-09-15T10:04:43.741Z,13.20
2022-09-15T10:05:43.586Z,14.20
2022-09-15T10:06:43.579Z,10.60
2022-09-15T10:07:43.582Z,9.50
2022-09-15T10:08:43.548Z,11.20
2022-09-15T10:09:43.553Z,9.70
2022-09-15T10:10:43.538Z,10.00
2022-09-15T10:11:43.533Z,10.80
2022-09-15T10:12:43.511Z,7.30
2022-09-15T10:13:43.514Z,10.60
2022-09-15T10:14:43.515Z,10.70
2022-09-15T10:15:43.493Z,9.80
2022-09-15T10:16:43.511Z,10.60
2022-09-15T10:17:43.483Z,7.80
2022-09-15T10:18:43.495Z,11.50
2022-09-15T10:19:43.458Z,8.50
2022-09-15T10:20:43.445Z,11.20
2022-09-15T10:21:43.419Z,10.80
2022-09-15T10:22:43.423Z,9.90
2022-09-15T10:23:43.400Z,8.40
2022-09-15T10:24:43.424Z,9.00
2022-09-15T10:25:59.238Z,8.90
2022-09-15T10:26:43.375Z,11.20
2022-09-15T10:27:43.350Z,8.40
2022-09-15T10:28:43.347Z,9.70
2022-09-15T10:29:43.335Z,8.90
2022-09-15T10:30:43.329Z,7.20
2022-09-15T10:31:43.360Z,7.70
2022-09-15T10:32:43.298Z,9.20
2022-09-15T10:33:43.287Z,6.70
2022-09-15T10:34:43.327Z,8.70
2022-09-15T10:35:43.318Z,7.30
2022-09-15T10:36:43.264Z,8.30
2022-09-15T10:37:43.250Z,7.40
2022-09-15T10:38:43.243Z,9.00
2022-09-15T10:39:43.231Z,7.30
2022-09-15T10:40:43.266Z,6.90
2022-09-15T10:41:43.217Z,7.30
2022-09-15T10:42:43.201Z,9.40
2022-09-15T10:43:43.182Z,6.90
2022-09-15T10:44:43.210Z,5.70
2022-09-15T10:45:43.192Z,10.10
2022-09-15T10:46:43.176Z,8.10
2022-09-15T10:47:43.167Z,9.20
2022-09-15T10:48:43.161Z,9.90
2022-09-15T10:49:43.135Z,6.50
2022-09-15T10:50:43.121Z,7.60
2022-09-15T10:51:43.104Z,6.60
2022-09-15T10:52:43.102Z,7.60
2022-09-15T10:53:43.088Z,6.40
2022-09-15T10:54:43.084Z,8.80
2022-09-15T10:55:53.041Z,6.40
2022-09-15T10:56:43.071Z,8.80
2022-09-15T10:57:43.059Z,9.80
2022-09-15T10:58:45.631Z,7.40
2022-09-15T10:59:43.030Z,7.00
2022-09-15T11:00:43.029Z,7.20
2022-09-15T11:01:43.089Z,9.20
2022-09-15T11:02:43.042Z,7.50
2022-09-15T11:03:43.048Z,7.60
2022-09-15T11:04:43.019Z,7.10
2022-09-15T11:05:42.954Z,5.70
2022-09-15T11:06:42.981Z,7.40
2022-09-15T11:07:42.982Z,6.50
2022-09-15T11:08:43.011Z,7.40
2022-09-15T11:09:42.929Z,6.40
2022-09-15T11:10:42.932Z,7.30
2022-09-15T11:11:42.926Z,5.40
2022-09-15T11:12:42.889Z,9.30
2022-09-15T11:13:42.895Z,9.60
2022-09-15T11:14:42.866Z,7.90
2022-09-15T11:15:42.877Z,6.60
2022-09-15T11:16:42.906Z,9.80
2022-09-15T11:17:42.878Z,7.10
2022-09-15T11:18:42.842Z,5.80
2022-09-15T11:19:43.049Z,8.10
2022-09-15T11:20:42.815Z,8.00
2022-09-15T11:21:42.815Z,6.50
2022-09-15T11:22:47.289Z,10.30
2022-09-15T11:23:42.782Z,5.70
2022-09-15T11:24:42.797Z,5.80
2022-09-15T11:25:42.775Z,6.90
2022-09-15T11:26:42.771Z,7.10
2022-09-15T11:27:43.249Z,6.20
2022-09-15T11:28:42.721Z,6.50
2022-09-15T11:29:42.735Z,6.70
2022-09-15T11:30:47.547Z,8.00
2022-09-15T11:31:42.986Z,7.40
2022-09-15T11:32:42.693Z,6.70
2022-09-15T11:33:42.769Z,4.90
2022-09-15T11:34:42.685Z,8.30
2022-09-15T11:35:42.654Z,8.60
2022-09-15T11:36:42.648Z,5.20
2022-09-15T11:37:42.636Z,7.40
2022-09-15T11:38:42.623Z,8.00
2022-09-15T11:39:42.620Z,6.90
2022-09-15T11:40:42.618Z,8.10
2022-09-15T11:41:42.600Z,7.10
2022-09-15T11:42:42.593Z,6.70
2022-09-15T11:43:42.565Z,8.30
2022-09-15T11:44:42.566Z,11.60
2022-09-15T11:45:42.532Z,8.40
2022-09-15T11:46:42.596Z,6.90
2022-09-15T11:47:42.549Z,7.00
2022-09-15T11:48:42.606Z,8.40
2022-09-15T11:49:42.503Z,5.70
2022-09-15T11:50:42.475Z,5.70
2022-09-15T11:51:42.476Z,10.30
2022-09-15T11:52:42.485Z,5.50
2022-09-15T11:53:42.455Z,7.40
2022-09-15T11:54:42.445Z,6.50
2022-09-15T11:55:42.432Z,10.40
2022-09-15T11:56:42.429Z,7.90
2022-09-15T11:57:42.515Z,7.60
2022-09-15T11:58:42.401Z,7.40
2022-09-15T11:59:42.401Z,5.80
2022-09-15T12:00:42.397Z,9.10
2022-09-15T12:01:42.430Z,6.00
2022-09-15T12:02:42.460Z,8.40
2022-09-15T12:03:42.474Z,9.00
2022-09-15T12:04:42.329Z,6.80
2022-09-15T12:05:42.308Z,10.70
2022-09-15T12:06:45.765Z,6.40
2022-09-15T12:07:42.296Z,10.00
2022-09-15T12:08:42.302Z,8.80
2022-09-15T12:09:42.300Z,7.50
2022-09-15T12:10:42.252Z,5.30
2022-09-15T12:11:42.263Z,6.80
2022-09-15T12:12:42.246Z,7.50
2022-09-15T12:13:42.247Z,7.60
2022-09-15T12:14:42.224Z,6.30
2022-09-15T12:15:42.235Z,6.70
2022-09-15T12:16:42.220Z,7.90
2022-09-15T12:17:42.183Z,7.40
2022-09-15T12:18:44.947Z,10.50
2022-09-15T12:19:42.182Z,11.70
2022-09-15T12:20:42.140Z,6.80
2022-09-15T12:21:42.158Z,10.80
2022-09-15T12:22:42.137Z,6.20
2022-09-15T12:23:42.173Z,6.80
2022-09-15T12:24:42.104Z,9.10
2022-09-15T12:25:42.165Z,8.00
2022-09-15T12:26:42.113Z,8.40
2022-09-15T12:27:42.076Z,8.30
2022-09-15T12:28:42.143Z,9.60
2022-09-15T12:29:42.656Z,6.70
2022-09-15T12:30:42.043Z,6.90
2022-09-15T12:31:42.041Z,8.70
2022-09-15T12:32:42.008Z,10.90
2022-09-15T12:33:42.013Z,7.40
2022-09-15T12:34:42.132Z,6.10
2022-09-15T12:35:41.985Z,8.30
2022-09-15T12:36:41.971Z,10.60
2022-09-15T12:37:41.950Z,7.70
2022-09-15T12:38:41.973Z,7.70
2022-09-15T12:39:41.941Z,7.50
2022-09-15T12:40:42.091Z,7.90
2022-09-15T12:41:41.917Z,9.10
2022-09-15T12:42:41.929Z,9.80
2022-09-15T12:43:41.892Z,9.30
2022-09-15T12:44:41.876Z,10.50
2022-09-15T12:45:41.911Z,8.20
2022-09-15T12:46:41.982Z,6.70
2022-09-15T12:47:41.862Z,7.90
2022-09-15T12:48:45.585Z,9.10
2022-09-15T12:49:41.833Z,7.30
2022-09-15T12:50:41.861Z,10.30
2022-09-15T12:51:41.834Z,6.80
2022-09-15T12:52:41.789Z,6.40
2022-09-15T12:53:43.427Z,7.40
2022-09-15T12:54:41.761Z,9.40
2022-09-15T12:55:41.791Z,11.70
2022-09-15T12:56:41.766Z,7.10
2022-09-15T12:57:41.754Z,6.90
2022-09-15T12:58:41.733Z,5.90